sensor_id;sensor_type;location;lat;lon;timestamp;temperature;humidity
7445;DHT22;3764;48.126;11.594;2024-03-08T00:01:21;2.90;99.90
7445;DHT22;3764;48.126;11.594;2024-03-08T00:03:49;2.80;99.90
7445;DHT22;3764;48.126;11.594;2024-03-08T00:06:17;2.90;99.90
7445;DHT22;3764;48.126;11.594;2024-03-08T00:08:46;2.90;99.90
7445;DHT22;3764;48.126;11.594;2024-03-08T00:11:14;2.80;99.90
7445;DHT22;3764;48.126;11.594;2024-03-08T00:13:41;2.70;99.90
7445;DHT22;3764;48.126;11.594;2024-03-08T00:16:08;2.60;99.90
7445;DHT22;3764;48.126;11.594;2024-03-08T00:18:36;2.50;99.90
7445;DHT22;3764;48.126;11.594;2024-03-08T00:21:03;2.50;99.90
7445;DHT22;3764;48.126;11.594;2024-03-08T00:23:31;2.50;99.90
7445;DHT22;3764;48.126;11.594;2024-03-08T00:26:00;2.50;99.90
7445;DHT22;3764;48.126;11.594;2024-03-08T00:28:29;2.50;99.90
7445;DHT22;3764;48.126;11.594;2024-03-08T00:30:56;2.50;99.90
7445;DHT22;3764;48.126;11.594;2024-03-08T00:33:24;2.50;99.90
7445;DHT22;3764;48.126;11.594;2024-03-08T00:35:51;2.40;99.90
7445;DHT22;3764;48.126;11.594;2024-03-08T00:38:18;2.40;99.90
7445;DHT22;3764;48.126;11.594;2024-03-08T00:40:46;2.40;99.90
7445;DHT22;3764;48.126;11.594;2024-03-08T00:43:15;2.40;99.90
7445;DHT22;3764;48.126;11.594;2024-03-08T00:45:42;2.30;99.90
7445;DHT22;3764;48.126;11.594;2024-03-08T00:48:10;2.30;99.90
7445;DHT22;3764;48.126;11.594;2024-03-08T00:50:38;2.30;99.90
7445;DHT22;3764;48.126;11.594;2024-03-08T00:53:05;2.40;99.90
7445;DHT22;3764;48.126;11.594;2024-03-08T00:55:32;2.40;99.90
7445;DHT22;3764;48.126;11.594;2024-03-08T00:58:01;2.50;99.90
7445;DHT22;3764;48.126;11.594;2024-03-08T01:00:29;2.50;99.90
7445;DHT22;3764;48.126;11.594;2024-03-08T01:02:57;2.60;99.90
7445;DHT22;3764;48.126;11.594;2024-03-08T01:05:24;2.60;99.90
7445;DHT22;3764;48.126;11.594;2024-03-08T01:07:52;2.60;99.90
7445;DHT22;3764;48.126;11.594;2024-03-08T01:10:19;2.60;99.90
7445;DHT22;3764;48.126;11.594;2024-03-08T01:12:46;2.60;99.90
7445;DHT22;3764;48.126;11.594;2024-03-08T01:15:13;2.60;99.90
7445;DHT22;3764;48.126;11.594;2024-03-08T01:17:42;2.60;99.90
7445;DHT22;3764;48.126;11.594;2024-03-08T01:20:10;2.50;99.90
7445;DHT22;3764;48.126;11.594;2024-03-08T01:25:50;2.40;99.90
7445;DHT22;3764;48.126;11.594;2024-03-08T01:28:23;2.40;99.90
7445;DHT22;3764;48.126;11.594;2024-03-08T01:30:50;2.40;99.90
7445;DHT22;3764;48.126;11.594;2024-03-08T01:33:23;2.30;99.90
7445;DHT22;3764;48.126;11.594;2024-03-08T01:35:51;2.30;99.90
7445;DHT22;3764;48.126;11.594;2024-03-08T01:38:19;2.40;99.90
7445;DHT22;3764;48.126;11.594;2024-03-08T01:40:47;2.30;99.90
7445;DHT22;3764;48.126;11.594;2024-03-08T01:43:20;2.40;99.90
7445;DHT22;3764;48.126;11.594;2024-03-08T01:45:48;2.30;99.90
7445;DHT22;3764;48.126;11.594;2024-03-08T01:48:17;2.40;99.90
7445;DHT22;3764;48.126;11.594;2024-03-08T01:50:46;2.50;99.90
7445;DHT22;3764;48.126;11.594;2024-03-08T01:53:13;2.50;99.90
7445;DHT22;3764;48.126;11.594;2024-03-08T01:55:42;2.60;99.90
7445;DHT22;3764;48.126;11.594;2024-03-08T01:58:12;2.60;99.90
7445;DHT22;3764;48.126;11.594;2024-03-08T02:00:43;2.60;99.90
7445;DHT22;3764;48.126;11.594;2024-03-08T02:03:11;2.60;99.90
7445;DHT22;3764;48.126;11.594;2024-03-08T02:05:40;2.50;99.90
7445;DHT22;3764;48.126;11.594;2024-03-08T02:08:10;2.40;99.90
7445;DHT22;3764;48.126;11.594;2024-03-08T02:10:40;2.40;99.90
7445;DHT22;3764;48.126;11.594;2024-03-08T02:13:08;2.40;99.90
7445;DHT22;3764;48.126;11.594;2024-03-08T02:15:53;2.40;99.90
7445;DHT22;3764;48.126;11.594;2024-03-08T02:18:21;2.40;99.90
7445;DHT22;3764;48.126;11.594;2024-03-08T02:20:51;2.40;99.90
7445;DHT22;3764;48.126;11.594;2024-03-08T02:23:19;2.30;99.90
7445;DHT22;3764;48.126;11.594;2024-03-08T02:25:46;2.20;99.90
7445;DHT22;3764;48.126;11.594;2024-03-08T02:28:14;2.20;99.90
7445;DHT22;3764;48.126;11.594;2024-03-08T02:30:41;2.20;99.90
7445;DHT22;3764;48.126;11.594;2024-03-08T02:33:09;2.10;99.90
7445;DHT22;3764;48.126;11.594;2024-03-08T02:35:36;2.00;99.90
7445;DHT22;3764;48.126;11.594;2024-03-08T02:38:05;2.00;99.90
7445;DHT22;3764;48.126;11.594;2024-03-08T02:40:33;2.00;99.90
7445;DHT22;3764;48.126;11.594;2024-03-08T02:43:00;2.00;99.90
7445;DHT22;3764;48.126;11.594;2024-03-08T02:45:27;2.00;99.90
7445;DHT22;3764;48.126;11.594;2024-03-08T02:47:55;2.00;99.90
7445;DHT22;3764;48.126;11.594;2024-03-08T02:50:23;1.90;99.90
7445;DHT22;3764;48.126;11.594;2024-03-08T02:52:51;1.90;99.90
7445;DHT22;3764;48.126;11.594;2024-03-08T02:55:20;1.80;99.90
7445;DHT22;3764;48.126;11.594;2024-03-08T02:57:47;1.80;99.90
7445;DHT22;3764;48.126;11.594;2024-03-08T03:00:15;1.80;99.90
7445;DHT22;3764;48.126;11.594;2024-03-08T03:02:42;1.90;99.90
7445;DHT22;3764;48.126;11.594;2024-03-08T03:05:10;1.90;99.90
7445;DHT22;3764;48.126;11.594;2024-03-08T03:07:37;1.90;99.90
7445;DHT22;3764;48.126;11.594;2024-03-08T03:10:05;1.90;99.90
7445;DHT22;3764;48.126;11.594;2024-03-08T03:12:35;1.90;99.90
7445;DHT22;3764;48.126;11.594;2024-03-08T03:15:04;2.00;99.90
7445;DHT22;3764;48.126;11.594;2024-03-08T03:17:32;2.00;99.90
7445;DHT22;3764;48.126;11.594;2024-03-08T03:20:00;2.00;99.90
7445;DHT22;3764;48.126;11.594;2024-03-08T03:22:30;2.00;99.90
7445;DHT22;3764;48.126;11.594;2024-03-08T03:24:57;2.00;99.90
7445;DHT22;3764;48.126;11.594;2024-03-08T03:27:28;2.00;99.90
7445;DHT22;3764;48.126;11.594;2024-03-08T03:29:57;1.90;99.90
7445;DHT22;3764;48.126;11.594;2024-03-08T03:32:45;1.90;99.90
7445;DHT22;3764;48.126;11.594;2024-03-08T03:35:13;1.80;99.90
7445;DHT22;3764;48.126;11.594;2024-03-08T03:37:41;1.70;99.90
7445;DHT22;3764;48.126;11.594;2024-03-08T03:40:12;1.60;99.90
7445;DHT22;3764;48.126;11.594;2024-03-08T03:42:40;1.70;99.90
7445;DHT22;3764;48.126;11.594;2024-03-08T03:45:09;1.70;99.90
7445;DHT22;3764;48.126;11.594;2024-03-08T03:47:36;1.70;99.90
7445;DHT22;3764;48.126;11.594;2024-03-08T03:50:06;1.70;99.90
7445;DHT22;3764;48.126;11.594;2024-03-08T03:52:35;1.80;99.90
7445;DHT22;3764;48.126;11.594;2024-03-08T03:55:03;1.70;99.90
7445;DHT22;3764;48.126;11.594;2024-03-08T03:57:31;1.70;99.90
7445;DHT22;3764;48.126;11.594;2024-03-08T03:59:59;1.70;99.90
7445;DHT22;3764;48.126;11.594;2024-03-08T04:02:30;1.70;99.90
7445;DHT22;3764;48.126;11.594;2024-03-08T04:04:57;1.70;99.90
7445;DHT22;3764;48.126;11.594;2024-03-08T04:07:24;1.70;99.90
7445;DHT22;3764;48.126;11.594;2024-03-08T04:09:52;1.70;99.90
7445;DHT22;3764;48.126;11.594;2024-03-08T04:12:19;1.70;99.90
7445;DHT22;3764;48.126;11.594;2024-03-08T04:14:46;1.70;99.90
7445;DHT22;3764;48.126;11.594;2024-03-08T04:17:14;1.60;99.90
7445;DHT22;3764;48.126;11.594;2024-03-08T04:19:42;1.50;99.90
7445;DHT22;3764;48.126;11.594;2024-03-08T04:22:10;1.60;99.90
7445;DHT22;3764;48.126;11.594;2024-03-08T04:24:37;1.60;99.90
7445;DHT22;3764;48.126;11.594;2024-03-08T04:27:06;1.70;99.90
7445;DHT22;3764;48.126;11.594;2024-03-08T04:29:33;1.60;99.90
7445;DHT22;3764;48.126;11.594;2024-03-08T04:32:03;1.60;99.90
7445;DHT22;3764;48.126;11.594;2024-03-08T04:34:30;1.60;99.90
7445;DHT22;3764;48.126;11.594;2024-03-08T04:36:59;1.70;99.90
7445;DHT22;3764;48.126;11.594;2024-03-08T04:39:26;1.70;99.90
7445;DHT22;3764;48.126;11.594;2024-03-08T04:41:54;1.60;99.90
7445;DHT22;3764;48.126;11.594;2024-03-08T04:44:23;1.60;99.90
7445;DHT22;3764;48.126;11.594;2024-03-08T04:46:51;1.50;99.90
7445;DHT22;3764;48.126;11.594;2024-03-08T04:49:18;1.40;99.90
7445;DHT22;3764;48.126;11.594;2024-03-08T04:51:47;1.40;99.90
7445;DHT22;3764;48.126;11.594;2024-03-08T04:54:16;1.40;99.90
7445;DHT22;3764;48.126;11.594;2024-03-08T04:56:43;1.40;99.90
7445;DHT22;3764;48.126;11.594;2024-03-08T04:59:11;1.40;99.90
7445;DHT22;3764;48.126;11.594;2024-03-08T05:01:38;1.40;99.90
7445;DHT22;3764;48.126;11.594;2024-03-08T05:04:05;1.30;99.90
7445;DHT22;3764;48.126;11.594;2024-03-08T05:06:33;1.30;99.90
7445;DHT22;3764;48.126;11.594;2024-03-08T05:09:00;1.30;99.90
7445;DHT22;3764;48.126;11.594;2024-03-08T05:11:33;1.30;99.90
7445;DHT22;3764;48.126;11.594;2024-03-08T05:14:01;1.30;99.90
7445;DHT22;3764;48.126;11.594;2024-03-08T05:16:28;1.40;99.90
7445;DHT22;3764;48.126;11.594;2024-03-08T05:18:55;1.30;99.90
7445;DHT22;3764;48.126;11.594;2024-03-08T05:21:23;1.30;99.90
7445;DHT22;3764;48.126;11.594;2024-03-08T05:23:51;1.30;99.90
7445;DHT22;3764;48.126;11.594;2024-03-08T05:26:18;1.30;99.90
7445;DHT22;3764;48.126;11.594;2024-03-08T05:28:47;1.20;99.90
7445;DHT22;3764;48.126;11.594;2024-03-08T05:31:19;1.20;99.90
7445;DHT22;3764;48.126;11.594;2024-03-08T05:33:46;1.20;99.90
7445;DHT22;3764;48.126;11.594;2024-03-08T05:36:14;1.20;99.90
7445;DHT22;3764;48.126;11.594;2024-03-08T05:38:42;1.10;99.90
7445;DHT22;3764;48.126;11.594;2024-03-08T05:41:10;1.10;99.90
7445;DHT22;3764;48.126;11.594;2024-03-08T05:43:37;1.00;99.90
7445;DHT22;3764;48.126;11.594;2024-03-08T05:46:06;1.00;99.90
7445;DHT22;3764;48.126;11.594;2024-03-08T05:48:33;1.10;99.90
7445;DHT22;3764;48.126;11.594;2024-03-08T05:51:01;1.10;99.90
7445;DHT22;3764;48.126;11.594;2024-03-08T05:53:29;1.10;99.90
7445;DHT22;3764;48.126;11.594;2024-03-08T05:55:57;1.10;99.90
7445;DHT22;3764;48.126;11.594;2024-03-08T05:58:27;1.10;99.90
7445;DHT22;3764;48.126;11.594;2024-03-08T06:00:57;1.20;99.90
7445;DHT22;3764;48.126;11.594;2024-03-08T06:03:26;1.10;99.90
7445;DHT22;3764;48.126;11.594;2024-03-08T06:05:53;1.10;99.90
7445;DHT22;3764;48.126;11.594;2024-03-08T06:08:22;1.10;99.90
7445;DHT22;3764;48.126;11.594;2024-03-08T06:10:55;1.10;99.90
7445;DHT22;3764;48.126;11.594;2024-03-08T06:13:25;1.10;99.90
7445;DHT22;3764;48.126;11.594;2024-03-08T06:15:52;1.10;99.90
7445;DHT22;3764;48.126;11.594;2024-03-08T06:18:19;1.10;99.90
7445;DHT22;3764;48.126;11.594;2024-03-08T06:20:48;1.10;99.90
7445;DHT22;3764;48.126;11.594;2024-03-08T06:23:15;1.10;99.90
7445;DHT22;3764;48.126;11.594;2024-03-08T06:25:43;1.10;99.90
7445;DHT22;3764;48.126;11.594;2024-03-08T06:28:11;1.10;99.90
7445;DHT22;3764;48.126;11.594;2024-03-08T06:30:40;1.10;99.90
7445;DHT22;3764;48.126;11.594;2024-03-08T06:33:08;1.10;99.90
7445;DHT22;3764;48.126;11.594;2024-03-08T06:35:36;1.10;99.90
7445;DHT22;3764;48.126;11.594;2024-03-08T06:38:06;1.10;99.90
7445;DHT22;3764;48.126;11.594;2024-03-08T06:40:33;1.10;99.90
7445;DHT22;3764;48.126;11.594;2024-03-08T06:43:00;1.10;99.90
7445;DHT22;3764;48.126;11.594;2024-03-08T06:45:31;1.10;99.90
7445;DHT22;3764;48.126;11.594;2024-03-08T06:47:59;1.10;99.90
7445;DHT22;3764;48.126;11.594;2024-03-08T06:50:26;1.10;99.90
7445;DHT22;3764;48.126;11.594;2024-03-08T06:52:53;1.10;99.90
7445;DHT22;3764;48.126;11.594;2024-03-08T06:55:22;1.20;99.90
7445;DHT22;3764;48.126;11.594;2024-03-08T06:57:49;1.20;99.90
7445;DHT22;3764;48.126;11.594;2024-03-08T07:00:17;1.20;99.90
7445;DHT22;3764;48.126;11.594;2024-03-08T07:02:46;1.20;99.90
7445;DHT22;3764;48.126;11.594;2024-03-08T07:05:14;1.20;99.90
7445;DHT22;3764;48.126;11.594;2024-03-08T07:07:42;1.30;99.90
7445;DHT22;3764;48.126;11.594;2024-03-08T07:10:13;1.30;99.90
7445;DHT22;3764;48.126;11.594;2024-03-08T07:12:42;1.40;99.90
7445;DHT22;3764;48.126;11.594;2024-03-08T07:15:10;1.50;99.90
7445;DHT22;3764;48.126;11.594;2024-03-08T07:17:39;1.50;99.90
7445;DHT22;3764;48.126;11.594;2024-03-08T07:20:07;1.50;99.90
7445;DHT22;3764;48.126;11.594;2024-03-08T07:22:37;1.50;99.90
7445;DHT22;3764;48.126;11.594;2024-03-08T07:25:06;1.40;99.90
7445;DHT22;3764;48.126;11.594;2024-03-08T07:27:48;1.40;99.90
7445;DHT22;3764;48.126;11.594;2024-03-08T07:30:15;1.40;99.90
7445;DHT22;3764;48.126;11.594;2024-03-08T07:33:00;1.30;99.90
7445;DHT22;3764;48.126;11.594;2024-03-08T07:35:28;1.40;99.90
7445;DHT22;3764;48.126;11.594;2024-03-08T07:37:57;1.40;99.90
7445;DHT22;3764;48.126;11.594;2024-03-08T07:40:25;1.40;99.90
7445;DHT22;3764;48.126;11.594;2024-03-08T07:42:54;1.50;99.90
7445;DHT22;3764;48.126;11.594;2024-03-08T07:45:22;1.50;99.90
7445;DHT22;3764;48.126;11.594;2024-03-08T07:47:49;1.60;99.90
7445;DHT22;3764;48.126;11.594;2024-03-08T07:50:18;1.70;99.90
7445;DHT22;3764;48.126;11.594;2024-03-08T07:52:48;1.70;99.90
7445;DHT22;3764;48.126;11.594;2024-03-08T07:55:16;1.70;99.90
7445;DHT22;3764;48.126;11.594;2024-03-08T07:57:43;1.70;99.90
7445;DHT22;3764;48.126;11.594;2024-03-08T08:00:14;1.70;99.90
7445;DHT22;3764;48.126;11.594;2024-03-08T08:02:44;1.70;99.90
7445;DHT22;3764;48.126;11.594;2024-03-08T08:05:12;1.80;99.90
7445;DHT22;3764;48.126;11.594;2024-03-08T08:07:43;1.80;99.90
7445;DHT22;3764;48.126;11.594;2024-03-08T08:10:12;1.80;99.90
7445;DHT22;3764;48.126;11.594;2024-03-08T08:12:44;1.80;99.90
7445;DHT22;3764;48.126;11.594;2024-03-08T08:15:14;1.90;99.90
7445;DHT22;3764;48.126;11.594;2024-03-08T08:17:42;2.00;99.90
7445;DHT22;3764;48.126;11.594;2024-03-08T08:20:10;2.00;99.90
7445;DHT22;3764;48.126;11.594;2024-03-08T08:22:39;2.10;99.90
7445;DHT22;3764;48.126;11.594;2024-03-08T08:25:07;2.20;99.90
7445;DHT22;3764;48.126;11.594;2024-03-08T08:27:35;2.20;99.90
7445;DHT22;3764;48.126;11.594;2024-03-08T08:30:04;2.20;99.90
7445;DHT22;3764;48.126;11.594;2024-03-08T08:32:35;2.30;99.90
7445;DHT22;3764;48.126;11.594;2024-03-08T08:35:03;2.30;99.90
7445;DHT22;3764;48.126;11.594;2024-03-08T08:37:31;2.40;99.90
7445;DHT22;3764;48.126;11.594;2024-03-08T08:39:59;2.40;99.90
7445;DHT22;3764;48.126;11.594;2024-03-08T08:42:31;2.50;99.90
7445;DHT22;3764;48.126;11.594;2024-03-08T08:44:59;2.70;99.90
7445;DHT22;3764;48.126;11.594;2024-03-08T08:47:35;2.80;99.90
7445;DHT22;3764;48.126;11.594;2024-03-08T08:50:03;2.80;99.90
7445;DHT22;3764;48.126;11.594;2024-03-08T08:52:31;2.90;99.90
7445;DHT22;3764;48.126;11.594;2024-03-08T08:54:58;3.00;99.90
7445;DHT22;3764;48.126;11.594;2024-03-08T08:57:26;3.00;99.90
7445;DHT22;3764;48.126;11.594;2024-03-08T08:59:53;3.10;99.90
7445;DHT22;3764;48.126;11.594;2024-03-08T09:02:21;3.10;99.90
7445;DHT22;3764;48.126;11.594;2024-03-08T09:04:50;3.20;99.90
7445;DHT22;3764;48.126;11.594;2024-03-08T09:07:17;3.20;99.90
7445;DHT22;3764;48.126;11.594;2024-03-08T09:09:45;3.30;99.90
7445;DHT22;3764;48.126;11.594;2024-03-08T09:12:12;3.30;99.90
7445;DHT22;3764;48.126;11.594;2024-03-08T09:14:40;3.40;99.90
7445;DHT22;3764;48.126;11.594;2024-03-08T09:17:07;3.40;99.90
7445;DHT22;3764;48.126;11.594;2024-03-08T09:19:35;3.50;99.90
7445;DHT22;3764;48.126;11.594;2024-03-08T09:22:04;3.50;99.90
7445;DHT22;3764;48.126;11.594;2024-03-08T09:24:32;3.60;99.90
7445;DHT22;3764;48.126;11.594;2024-03-08T09:26:59;3.60;99.90
7445;DHT22;3764;48.126;11.594;2024-03-08T09:29:26;3.70;99.90
7445;DHT22;3764;48.126;11.594;2024-03-08T09:31:54;3.70;99.90
7445;DHT22;3764;48.126;11.594;2024-03-08T09:34:21;3.80;99.90
7445;DHT22;3764;48.126;11.594;2024-03-08T09:36:49;3.80;99.90
7445;DHT22;3764;48.126;11.594;2024-03-08T09:39:19;3.90;99.90
7445;DHT22;3764;48.126;11.594;2024-03-08T09:41:47;4.00;99.90
7445;DHT22;3764;48.126;11.594;2024-03-08T09:44:15;4.00;99.90
7445;DHT22;3764;48.126;11.594;2024-03-08T09:46:42;4.10;99.90
7445;DHT22;3764;48.126;11.594;2024-03-08T09:49:10;4.10;99.90
7445;DHT22;3764;48.126;11.594;2024-03-08T09:51:39;4.20;99.90
7445;DHT22;3764;48.126;11.594;2024-03-08T09:54:07;4.20;99.90
7445;DHT22;3764;48.126;11.594;2024-03-08T09:56:36;4.30;99.90
7445;DHT22;3764;48.126;11.594;2024-03-08T09:59:04;4.40;99.90
7445;DHT22;3764;48.126;11.594;2024-03-08T10:01:49;4.40;99.90
7445;DHT22;3764;48.126;11.594;2024-03-08T10:04:17;4.40;99.90
7445;DHT22;3764;48.126;11.594;2024-03-08T10:06:45;4.50;99.90
7445;DHT22;3764;48.126;11.594;2024-03-08T10:09:13;4.50;99.90
7445;DHT22;3764;48.126;11.594;2024-03-08T10:11:43;4.60;99.90
7445;DHT22;3764;48.126;11.594;2024-03-08T10:14:11;4.70;99.90
7445;DHT22;3764;48.126;11.594;2024-03-08T10:16:39;4.70;99.90
7445;DHT22;3764;48.126;11.594;2024-03-08T10:19:06;4.70;99.90
7445;DHT22;3764;48.126;11.594;2024-03-08T10:21:35;4.90;99.90
7445;DHT22;3764;48.126;11.594;2024-03-08T10:24:03;4.90;99.90
7445;DHT22;3764;48.126;11.594;2024-03-08T10:26:30;5.00;99.90
7445;DHT22;3764;48.126;11.594;2024-03-08T10:28:59;5.00;99.90
7445;DHT22;3764;48.126;11.594;2024-03-08T10:31:26;5.10;99.90
7445;DHT22;3764;48.126;11.594;2024-03-08T10:33:54;5.10;99.90
7445;DHT22;3764;48.126;11.594;2024-03-08T10:36:21;5.20;99.90
7445;DHT22;3764;48.126;11.594;2024-03-08T10:38:51;5.20;99.90
7445;DHT22;3764;48.126;11.594;2024-03-08T10:41:19;5.30;99.90
7445;DHT22;3764;48.126;11.594;2024-03-08T10:44:09;5.30;99.90
7445;DHT22;3764;48.126;11.594;2024-03-08T10:46:46;5.40;99.90
7445;DHT22;3764;48.126;11.594;2024-03-08T10:49:26;5.50;99.90
7445;DHT22;3764;48.126;11.594;2024-03-08T10:51:57;5.60;99.90
7445;DHT22;3764;48.126;11.594;2024-03-08T10:54:26;5.70;99.90
7445;DHT22;3764;48.126;11.594;2024-03-08T10:56:54;5.80;99.90
7445;DHT22;3764;48.126;11.594;2024-03-08T10:59:24;5.90;99.90
7445;DHT22;3764;48.126;11.594;2024-03-08T11:01:53;6.00;99.90
7445;DHT22;3764;48.126;11.594;2024-03-08T11:04:20;6.10;99.90
7445;DHT22;3764;48.126;11.594;2024-03-08T11:06:50;6.30;99.90
7445;DHT22;3764;48.126;11.594;2024-03-08T11:09:30;6.40;99.90
7445;DHT22;3764;48.126;11.594;2024-03-08T11:12:18;6.60;99.90
7445;DHT22;3764;48.126;11.594;2024-03-08T11:14:48;6.70;99.90
7445;DHT22;3764;48.126;11.594;2024-03-08T11:17:18;6.90;99.90
7445;DHT22;3764;48.126;11.594;2024-03-08T11:19:48;7.00;99.90
7445;DHT22;3764;48.126;11.594;2024-03-08T11:22:22;7.20;99.90
7445;DHT22;3764;48.126;11.594;2024-03-08T11:24:53;7.30;99.90
7445;DHT22;3764;48.126;11.594;2024-03-08T11:27:20;7.40;99.90
7445;DHT22;3764;48.126;11.594;2024-03-08T11:30:01;7.50;99.90
7445;DHT22;3764;48.126;11.594;2024-03-08T11:32:36;7.60;99.90
7445;DHT22;3764;48.126;11.594;2024-03-08T11:35:06;7.70;99.90
7445;DHT22;3764;48.126;11.594;2024-03-08T11:37:35;8.00;99.90
7445;DHT22;3764;48.126;11.594;2024-03-08T11:40:12;8.20;99.90
7445;DHT22;3764;48.126;11.594;2024-03-08T11:42:45;8.30;99.90
7445;DHT22;3764;48.126;11.594;2024-03-08T11:45:16;8.40;99.90
7445;DHT22;3764;48.126;11.594;2024-03-08T11:47:43;8.50;99.90
7445;DHT22;3764;48.126;11.594;2024-03-08T11:50:12;8.60;99.90
7445;DHT22;3764;48.126;11.594;2024-03-08T11:52:39;8.70;99.90
7445;DHT22;3764;48.126;11.594;2024-03-08T11:55:08;8.80;99.90
7445;DHT22;3764;48.126;11.594;2024-03-08T11:57:38;8.90;99.90
7445;DHT22;3764;48.126;11.594;2024-03-08T12:00:06;9.10;99.90
7445;DHT22;3764;48.126;11.594;2024-03-08T12:03:01;9.20;99.90
7445;DHT22;3764;48.126;11.594;2024-03-08T12:05:28;9.40;99.90
7445;DHT22;3764;48.126;11.594;2024-03-08T12:07:57;9.50;99.90
7445;DHT22;3764;48.126;11.594;2024-03-08T12:10:24;9.60;99.90
7445;DHT22;3764;48.126;11.594;2024-03-08T12:12:53;9.60;99.90
7445;DHT22;3764;48.126;11.594;2024-03-08T12:15:22;9.70;99.90
7445;DHT22;3764;48.126;11.594;2024-03-08T12:17:52;9.80;99.90
7445;DHT22;3764;48.126;11.594;2024-03-08T12:20:21;9.90;99.90
7445;DHT22;3764;48.126;11.594;2024-03-08T12:22:50;10.00;99.90
7445;DHT22;3764;48.126;11.594;2024-03-08T12:25:18;10.10;99.90
7445;DHT22;3764;48.126;11.594;2024-03-08T12:27:46;10.10;99.90
7445;DHT22;3764;48.126;11.594;2024-03-08T12:30:19;10.10;99.90
7445;DHT22;3764;48.126;11.594;2024-03-08T12:32:49;10.20;99.90
7445;DHT22;3764;48.126;11.594;2024-03-08T12:35:20;10.20;99.90
7445;DHT22;3764;48.126;11.594;2024-03-08T12:37:49;10.30;99.90
7445;DHT22;3764;48.126;11.594;2024-03-08T12:40:17;10.40;99.90
7445;DHT22;3764;48.126;11.594;2024-03-08T12:42:45;10.60;99.90
7445;DHT22;3764;48.126;11.594;2024-03-08T12:45:14;10.70;99.90
7445;DHT22;3764;48.126;11.594;2024-03-08T12:47:41;10.70;99.90
7445;DHT22;3764;48.126;11.594;2024-03-08T12:50:10;10.80;99.90
7445;DHT22;3764;48.126;11.594;2024-03-08T12:52:39;10.80;99.90
7445;DHT22;3764;48.126;11.594;2024-03-08T12:55:06;10.90;99.90
7445;DHT22;3764;48.126;11.594;2024-03-08T12:57:35;11.00;99.90
7445;DHT22;3764;48.126;11.594;2024-03-08T13:00:04;11.10;99.90
7445;DHT22;3764;48.126;11.594;2024-03-08T13:02:39;11.20;99.90
7445;DHT22;3764;48.126;11.594;2024-03-08T13:05:08;11.30;99.90
7445;DHT22;3764;48.126;11.594;2024-03-08T13:07:41;11.50;99.90
7445;DHT22;3764;48.126;11.594;2024-03-08T13:10:12;11.50;99.90
7445;DHT22;3764;48.126;11.594;2024-03-08T13:12:41;11.50;99.90
7445;DHT22;3764;48.126;11.594;2024-03-08T13:15:09;11.50;99.90
7445;DHT22;3764;48.126;11.594;2024-03-08T13:17:41;11.50;99.90
7445;DHT22;3764;48.126;11.594;2024-03-08T13:20:11;11.50;99.90
7445;DHT22;3764;48.126;11.594;2024-03-08T13:22:45;11.60;99.90
7445;DHT22;3764;48.126;11.594;2024-03-08T13:25:13;11.70;99.90
7445;DHT22;3764;48.126;11.594;2024-03-08T13:27:40;11.80;99.90
7445;DHT22;3764;48.126;11.594;2024-03-08T13:30:09;11.80;99.90
7445;DHT22;3764;48.126;11.594;2024-03-08T13:32:39;11.90;99.90
7445;DHT22;3764;48.126;11.594;2024-03-08T13:35:09;11.90;99.90
7445;DHT22;3764;48.126;11.594;2024-03-08T13:37:39;12.00;99.90
7445;DHT22;3764;48.126;11.594;2024-03-08T13:40:09;11.90;99.90
7445;DHT22;3764;48.126;11.594;2024-03-08T13:42:39;11.90;99.90
7445;DHT22;3764;48.126;11.594;2024-03-08T13:45:08;11.80;99.90
7445;DHT22;3764;48.126;11.594;2024-03-08T13:47:37;11.80;99.90
7445;DHT22;3764;48.126;11.594;2024-03-08T13:50:06;11.80;99.90
7445;DHT22;3764;48.126;11.594;2024-03-08T13:52:37;11.70;99.90
7445;DHT22;3764;48.126;11.594;2024-03-08T13:55:05;11.70;99.90
7445;DHT22;3764;48.126;11.594;2024-03-08T13:57:34;11.80;99.90
7445;DHT22;3764;48.126;11.594;2024-03-08T14:00:02;11.80;99.90
7445;DHT22;3764;48.126;11.594;2024-03-08T14:02:32;11.80;99.90
7445;DHT22;3764;48.126;11.594;2024-03-08T14:05:00;11.80;99.90
7445;DHT22;3764;48.126;11.594;2024-03-08T14:07:27;11.70;99.90
7445;DHT22;3764;48.126;11.594;2024-03-08T14:09:55;11.70;99.90
7445;DHT22;3764;48.126;11.594;2024-03-08T14:12:23;11.80;99.90
7445;DHT22;3764;48.126;11.594;2024-03-08T14:14:56;11.90;99.90
7445;DHT22;3764;48.126;11.594;2024-03-08T14:17:25;11.90;99.90
7445;DHT22;3764;48.126;11.594;2024-03-08T14:19:53;12.00;99.90
7445;DHT22;3764;48.126;11.594;2024-03-08T14:22:20;12.10;99.90
7445;DHT22;3764;48.126;11.594;2024-03-08T14:24:47;12.10;99.90
7445;DHT22;3764;48.126;11.594;2024-03-08T14:27:15;12.00;99.90
7445;DHT22;3764;48.126;11.594;2024-03-08T14:29:44;12.00;99.70
7445;DHT22;3764;48.126;11.594;2024-03-08T14:32:13;12.00;99.50
7445;DHT22;3764;48.126;11.594;2024-03-08T14:34:41;11.90;99.90
7445;DHT22;3764;48.126;11.594;2024-03-08T14:37:09;11.90;99.90
7445;DHT22;3764;48.126;11.594;2024-03-08T14:39:37;12.00;99.70
7445;DHT22;3764;48.126;11.594;2024-03-08T14:42:05;12.00;99.80
7445;DHT22;3764;48.126;11.594;2024-03-08T14:44:34;12.00;99.90
7445;DHT22;3764;48.126;11.594;2024-03-08T14:47:02;12.10;99.80
7445;DHT22;3764;48.126;11.594;2024-03-08T14:49:33;12.10;99.70
7445;DHT22;3764;48.126;11.594;2024-03-08T14:52:02;12.10;99.70
7445;DHT22;3764;48.126;11.594;2024-03-08T14:54:40;12.10;99.70
7445;DHT22;3764;48.126;11.594;2024-03-08T14:57:09;12.10;98.90
7445;DHT22;3764;48.126;11.594;2024-03-08T14:59:36;12.10;99.10
7445;DHT22;3764;48.126;11.594;2024-03-08T15:02:04;12.20;99.30
7445;DHT22;3764;48.126;11.594;2024-03-08T15:04:34;12.10;99.10
7445;DHT22;3764;48.126;11.594;2024-03-08T15:07:01;12.00;99.30
7445;DHT22;3764;48.126;11.594;2024-03-08T15:09:31;11.80;98.80
7445;DHT22;3764;48.126;11.594;2024-03-08T15:12:06;11.50;99.40
7445;DHT22;3764;48.126;11.594;2024-03-08T15:14:33;11.30;99.50
7445;DHT22;3764;48.126;11.594;2024-03-08T15:17:01;11.20;99.20
7445;DHT22;3764;48.126;11.594;2024-03-08T15:19:37;11.00;99.90
7445;DHT22;3764;48.126;11.594;2024-03-08T15:22:06;10.80;99.90
7445;DHT22;3764;48.126;11.594;2024-03-08T15:24:33;10.60;99.90
7445;DHT22;3764;48.126;11.594;2024-03-08T15:27:00;10.60;99.90
7445;DHT22;3764;48.126;11.594;2024-03-08T15:29:28;10.50;99.90
7445;DHT22;3764;48.126;11.594;2024-03-08T15:31:57;10.50;99.90
7445;DHT22;3764;48.126;11.594;2024-03-08T15:34:26;10.40;99.90
7445;DHT22;3764;48.126;11.594;2024-03-08T15:36:54;10.40;99.90
7445;DHT22;3764;48.126;11.594;2024-03-08T15:39:27;10.30;99.90
7445;DHT22;3764;48.126;11.594;2024-03-08T15:41:57;10.20;99.90
7445;DHT22;3764;48.126;11.594;2024-03-08T15:44:24;10.20;99.90
7445;DHT22;3764;48.126;11.594;2024-03-08T15:46:53;10.00;99.90
7445;DHT22;3764;48.126;11.594;2024-03-08T15:49:20;10.00;99.90
7445;DHT22;3764;48.126;11.594;2024-03-08T15:51:47;10.00;99.90
7445;DHT22;3764;48.126;11.594;2024-03-08T15:54:17;9.90;99.90
7445;DHT22;3764;48.126;11.594;2024-03-08T15:56:44;9.90;99.90
7445;DHT22;3764;48.126;11.594;2024-03-08T15:59:12;9.80;99.90
7445;DHT22;3764;48.126;11.594;2024-03-08T16:01:39;9.60;99.90
7445;DHT22;3764;48.126;11.594;2024-03-08T16:04:07;9.50;99.90
7445;DHT22;3764;48.126;11.594;2024-03-08T16:06:34;9.40;99.90
7445;DHT22;3764;48.126;11.594;2024-03-08T16:09:02;9.30;99.90
7445;DHT22;3764;48.126;11.594;2024-03-08T16:11:32;9.20;99.90